HOURLY OBS INDEX

029

Gulf Country

BURKETOWN AIRPORT

Site: 029077
Alt: 5.7m
2km S of BURKETOWN


  Time     Wind        Temp  DP   Baro     Rain since   Rain past  Vis(m), Cloud(base in m), Weather
  local        km/h                         9am  last   hr   10m    
Sat 00:00    N  7/  9  21.2 12.6  1012.5    0.0   0.0   0.0   0.0   10000 
Sat 00:30    N  6/  7  20.9 12.1  1012.4    0.0   0.0   0.0   0.0   10000 
Sat 01:00  NNW  2/  7  20.4 11.3  1012.2    0.0   0.0   0.0   0.0   10000 
Sat 01:30  SSW  7/  9  19.9 12.9  1011.9    0.0   0.0   0.0   0.0   10000 
Sat 02:00  SSW  7/  9  20.0 11.2  1011.8    0.0   0.0   0.0   0.0   10000 
Sat 02:30    S  7/  9  19.2 13.6  1011.5    0.0   0.0   0.0   0.0   10000 
Sat 03:00    S 11/ 13  19.7 12.9  1011.3    0.0   0.0   0.0   0.0   10000 
Sat 03:30    S 15/ 19  22.2  6.0  1011.0    0.0   0.0   0.0   0.0   10000 
Sat 04:00    E 13/ 15  21.4  3.6  1011.1    0.0   0.0   0.0   0.0   10000 
Sat 04:30  ENE  6/  9  20.1  4.2  1011.4    0.0   0.0   0.0   0.0   10000 
Sat 05:00    E  6/  6  18.7  6.2  1011.5    0.0   0.0   0.0   0.0   10000 
Sat 05:30  SSE  7/  9  18.6  6.1  1011.8    0.0   0.0   0.0   0.0   10000 

CENTURY MINE

Site: 029167
Alt: 126.8m
144km SW of BURKETOWN


  Time     Wind        Temp  DP   Baro     Rain since   Rain past  Vis(m), Cloud(base in m), Weather
  local        km/h                         9am  last   hr   10m    
Sat 00:00    C  0/  6  20.1 -1.1  1013.2    0.0   0.0   0.0   0.0   ----- 
Sat 00:30  SSE  7/  9  19.7 -0.9  1013.1    0.0   0.0   0.0   0.0   ----- 
Sat 01:00  SSE  7/  7  19.5 -1.0  1013.0    0.0   0.0   0.0   0.0   ----- 
Sat 01:30  SSE  9/ 11  21.7 -0.3  1012.9    0.0   0.0   0.0   0.0   ----- 
Sat 02:00   SE  9/ 13  24.0 -1.8  1012.8    0.0   0.0   0.0   0.0   ----- 
Sat 02:30   SE  9/ 13  24.2 -1.6  1012.7    0.0   0.0   0.0   0.0   ----- 
Sat 03:00   SE 13/ 17  24.4 -2.2  1012.4    0.0   0.0   0.0   0.0   ----- 
Sat 03:30   SE 13/ 17  24.3 -3.1  1012.2    0.0   0.0   0.0   0.0   ----- 
Sat 04:00  ESE  9/ 13  23.3 -3.1  1012.2    0.0   0.0   0.0   0.0   ----- 
Sat 04:30    N  2/  7  20.5 -3.2  1012.3    0.0   0.0   0.0   0.0   ----- 
Sat 05:00   SE 13/ 19  23.8 -4.4  1012.6    0.0   0.0   0.0   0.0   ----- 
Sat 05:30   SE 11/ 15  23.3 -5.7  1012.9    0.0   0.0   0.0   0.0   ----- 

CLONCURRY AIRPORT

Site: 029141
Alt: 186.0m
105km E of MOUNT ISA


  Time     Wind        Temp  DP   Baro     Rain since   Rain past  Vis(m), Cloud(base in m), Weather
  local        km/h                         9am  last   hr   10m    
Sat 00:00    S 13/ 15  20.5 -4.6  1014.8    0.0   0.0   0.0   0.0   10000 
Sat 00:30  SSW 13/ 15  20.0 -3.6  1014.9    0.0   0.0   0.0   0.0   10000 
Sat 01:00  SSW 13/ 13  19.8 -3.1  1014.8    0.0   0.0   0.0   0.0   10000 
Sat 01:30    S 11/ 13  19.6 -2.7  1014.6    0.0   0.0   0.0   0.0   10000 
Sat 02:00    S  6/  9  18.3 -3.2  1014.5    0.0   0.0   0.0   0.0   10000 
Sat 02:30    S  6/  9  16.2 -3.3  1014.3    0.0   0.0   0.0   0.0   10000 
Sat 03:00    C  0/  0  17.6 -2.1  1013.8    0.0   0.0   0.0   0.0   10000 
Sat 03:30    S  7/ 11  16.4 -2.1  1013.7    0.0   0.0   0.0   0.0   10000 
Sat 04:00    S  6/  7  15.2 -3.2  1013.8    0.0   0.0   0.0   0.0   10000 
Sat 04:30  SSE  7/ 11  16.2 -2.3  1013.4    0.0   0.0   0.0   0.0   10000 
Sat 05:00    S 13/ 19  19.9 -0.1  1013.9    0.0   0.0   0.0   0.0   10000 
Sat 05:30    S 15/ 20  20.2 -1.0  1014.5    0.0   0.0   0.0   0.0   10000 

JULIA CREEK AIRPORT

Site: 029058
Alt: 122.5m
232km E of MOUNT ISA


  Time     Wind        Temp  DP   Baro     Rain since   Rain past  Vis(m), Cloud(base in m), Weather
  local        km/h                         9am  last   hr   10m    
Sat 00:00   SE 15/ 17  16.8 -1.3  1014.5    0.0   0.0   0.0   0.0   10000 
Sat 00:30   SE 17/ 19  16.9 -1.2  1014.5    0.0   0.0   0.0   0.0   10000 
Sat 01:00   SE 17/ 19  17.2 -1.0  1014.6    0.0   0.0   0.0   0.0   10000 
Sat 01:30   SE 17/ 19  15.8 -0.4  1014.5    0.0   0.0   0.0   0.0   10000 
Sat 02:00   SE 17/ 19  16.3  0.0  1014.4    0.0   0.0   0.0   0.0   10000 
Sat 02:30   SE 17/ 20  16.3  0.0  1014.3    0.0   0.0   0.0   0.0   10000 
Sat 03:00   SE 17/ 17  16.0 -0.2  1014.0    0.0   0.0   0.0   0.0   10000 
Sat 03:30   SE 17/ 17  14.3  0.6  1014.0    0.0   0.0   0.0   0.0   10000 
Sat 04:00  ESE 15/ 17  13.2  0.3  1013.8    0.0   0.0   0.0   0.0   10000 
Sat 04:30  ESE 19/ 20  12.7  0.1  1013.7    0.0   0.0   0.0   0.0   10000 
Sat 05:00   SE 20/ 24  14.4 -0.1  1014.5    0.0   0.0   0.0   0.0   10000 
Sat 05:30  ESE 17/ 20  14.6  0.1  1014.5    0.0   0.0   0.0   0.0   10000 

KOWANYAMA AIRPORT

Site: 029038
Alt: 9.6m
253km NNE of NORMANTON


  Time     Wind        Temp  DP   Baro     Rain since   Rain past  Vis(m), Cloud(base in m), Weather
  local        km/h                         9am  last   hr   10m    
Sat 00:00  NNE  6/  9  25.0 22.1  1012.9    0.0   0.0   0.0   0.0   10000|SC 420 
Sat 00:30    N  6/  7  24.8 21.9  1012.9    0.0   0.0   0.0   0.0   10000|SC 480 
Sat 01:00    N  2/  6  24.5 21.8  1012.8    0.0   0.0   0.0   0.0   10000 
Sat 01:30   SW  7/ 19  24.5 22.0  1012.8    0.0   0.0   0.0   0.0   10000|BR3000 
Sat 02:00  ENE  7/  9  24.6 21.7  1012.5    0.0   0.0   0.0   0.0   10000|BR3300 
Sat 02:30    E  6/  9  24.3 21.8  1012.4    0.0   0.0   0.0   0.0   10000 
Sat 03:00   NE  2/  7  23.7 21.6  1012.2    0.0   0.0   0.0   0.0   10000 
Sat 03:30  NNE  7/  9  23.6 21.7  1011.8    0.0   0.0   0.0   0.0   10000 
Sat 04:00  NNW  2/  9  23.2 21.1  1011.9    0.0   0.0   0.0   0.0   10000 
Sat 04:30    E  4/  7  23.2 21.5  1012.1    0.0   0.0   0.0   0.0   10000 
Sat 05:00    C  0/  0  22.9 21.4  1012.2    0.0   0.0   0.0   0.0   10000 
Sat 05:30    E  6/  7  22.6 21.1  1012.3    0.0   0.0   0.0   0.0   10000 

LAKE JULIUS AWS

Site: 029181
Alt: 237.0m
km of


  Time     Wind        Temp  DP   Baro     Rain since   Rain past  Vis(m), Cloud(base in m), Weather
  local        km/h                         9am  last   hr   10m    
Sat 00:00    C  0/  0  19.7  7.1  ------    0.0   0.0   0.0   0.0   ----- 
Sat 00:30  SSW  4/  6  20.2 11.9  ------    0.0   0.0   0.0   0.0   ----- 
Sat 01:00   SW  2/  4  19.4  8.4  ------    0.0   0.0   0.0   0.0   ----- 
Sat 01:30    C  0/  0  18.5  7.9  ------    0.0   0.0   0.0   0.0   ----- 
Sat 02:00    C  0/  6  18.1 10.2  ------    0.0   0.0   0.0   0.0   ----- 
Sat 02:30  NNE  4/  4  17.8 10.9  ------    0.0   0.0   0.0   0.0   ----- 
Sat 03:00    C  0/  0  17.3  9.7  ------    0.0   0.0   0.0   0.0   ----- 
Sat 03:30    C  0/  0  17.4  7.2  ------    0.0   0.0   0.0   0.0   ----- 
Sat 04:00    C  0/  0  17.1  8.0  ------    0.0   0.0   0.0   0.0   ----- 
Sat 04:30    C  0/  0  16.9  7.0  ------    0.0   0.0   0.0   0.0   ----- 
Sat 05:00    C  0/  0  16.3  7.8  ------    0.0   0.0   0.0   0.0   ----- 
Sat 05:30    C  0/  0  16.2  7.4  ------    0.0   0.0   0.0   0.0   ----- 

MORNINGTON ISLAND AIRPORT

Site: 029182
Alt: 9.5m
km of


  Time     Wind        Temp  DP   Baro     Rain since   Rain past  Vis(m), Cloud(base in m), Weather
  local        km/h                         9am  last   hr   10m    
Sat 00:00    W  9/ 15  25.6 21.9  1012.5    0.0   0.0   0.0   0.0   10000 
Sat 00:30    W  7/  9  25.1 22.0  1012.4    0.0   0.0   0.0   0.0   10000 
Sat 01:00    W  6/  7  23.9 21.2  1012.0    0.0   0.0   0.0   0.0   10000 
Sat 01:30    C  0/  0  23.3 20.6  1011.8    0.0   0.0   0.0   0.0   10000 
Sat 02:00    W  4/  7  22.5 20.4  1011.6    0.0   0.0   0.0   0.0   10000 
Sat 02:30  WSW  7/ 11  22.4 20.7  1011.5    0.0   0.0   0.0   0.0   10000 
Sat 03:00    S  9/ 13  23.7 22.7  1011.3    0.0   0.0   0.0   0.0   10000 
Sat 03:30    S  7/  9  23.5 22.3  1011.1    0.0   0.0   0.0   0.0   10000 
Sat 04:00    S  6/  7  23.4 22.2  1011.1    0.0   0.0   0.0   0.0   10000 
Sat 04:30    S  2/  7  23.0 21.8  1011.1    0.0   0.0   0.0   0.0   10000 
Sat 05:00    S  6/  7  22.9 21.7  1011.4    0.0   0.0   0.0   0.0   10000 
Sat 05:30    S  7/  7  22.8 21.4  1011.8    0.0   0.0   0.0   0.0   10000 

MOUNT ISA AERO

Site: 029127
Alt: 340.3m
5km N of MOUNT ISA


  Time     Wind        Temp  DP   Baro     Rain since   Rain past  Vis(m), Cloud(base in m), Weather
  local        km/h                         9am  last   hr   10m    
Sat 00:00  NNE  9/ 13  17.4  3.3  1016.0    0.0   0.0   0.0   0.0   10000 
Sat 00:30    C  0/  0  16.0  3.8  1015.9    0.0   0.0   0.0   0.0   10000 
Sat 01:00  ESE  7/  9  15.3  4.4  1015.5    0.0   0.0   0.0   0.0   10000 
Sat 01:30   SW  4/  7  15.3  5.0  1015.3    0.0   0.0   0.0   0.0   10000 
Sat 02:00  ESE  6/  9  15.9  3.4  1014.9    0.0   0.0   0.0   0.0   10000 
Sat 02:30  ESE  7/  9  15.0  4.4  1014.5    0.0   0.0   0.0   0.0   10000 
Sat 03:00  ESE  9/ 13  17.3  1.7  1014.2    0.0   0.0   0.0   0.0   10000 
Sat 03:30  ENE  7/  9  16.1  0.7  1014.3    0.0   0.0   0.0   0.0   10000 
Sat 04:00    E  9/ 11  17.1  3.4  1014.3    0.0   0.0   0.0   0.0   10000 
Sat 04:30    S 11/ 15  19.1  0.7  1014.4    0.0   0.0   0.0   0.0   10000 
Sat 05:00    S  9/ 11  18.3  0.0  1015.0    0.0   0.0   0.0   0.0   10000 
Sat 05:30  SSE 11/ 13  15.8  1.5  1015.4    0.0   0.0   0.0   0.0   10000 

NORMANTON AIRPORT

Site: 029063
Alt: 18.4m
3km SSE of NORMANTON


  Time     Wind        Temp  DP   Baro     Rain since   Rain past  Vis(m), Cloud(base in m), Weather
  local        km/h                         9am  last   hr   10m    
Sat 00:00  NNW  9/  9  24.4 19.7  1012.7    0.0   0.0   0.0   0.0   10000|SC3600 
Sat 00:30  NNW  6/  7  23.6 19.5  1012.6    0.0   0.0   0.0   0.0   10000 
Sat 01:00  NNW  4/  7  22.9 19.3  1012.5    0.0   0.0   0.0   0.0   10000 
Sat 01:30    C  0/  0  22.5 19.5  1012.2    0.0   0.0   0.0   0.0   10000 
Sat 02:00    S  9/ 11  23.4 14.4  1011.9    0.0   0.0   0.0   0.0   10000 
Sat 02:30    S 11/ 13  24.4  9.6  1011.8    0.0   0.0   0.0   0.0   10000 
Sat 03:00  SSE 11/ 17  24.7  6.4  1011.8    0.0   0.0   0.0   0.0   10000 
Sat 03:30   SE 11/ 15  24.1  6.8  1011.7    0.0   0.0   0.0   0.0   10000 
Sat 04:00   SE 11/ 15  23.1  7.6  1011.6    0.0   0.0   0.0   0.0   10000 
Sat 04:30  SSE 13/ 17  23.3  5.2  1011.6    0.0   0.0   0.0   0.0   10000 
Sat 05:00  SSE 15/ 17  22.1  4.2  1011.8    0.0   0.0   0.0   0.0   10000 
Sat 05:30  SSE 17/ 20  21.9  4.0  1012.1    0.0   0.0   0.0   0.0   10000